Flight Track Log - Related Links

Times and Time Zones

All times are in EDT time to prevent confusion due to time zone crossing. See the EJA122 flight status page for this flight to view local times or setup timezone preferences in your user account.

Time Position Orientation Groundspeed Altitude Reporting Facility
EDT Latitude Longitude Course Direction KTS MPH feet Rate Location/Type
Sun 09:33:29 PM 38.7439 -97.7114 238° Southwest 232 267 5,500  Level Kansas City Center
Sun 09:34:31 PM 38.7311 -97.8000 260° West 259 298 8,300 2,390 Climbing Kansas City Center
Sun 09:35:32 PM 38.7197 -97.8892 261° West 277 319 10,400 1,918 Climbing Kansas City Center
Sun 09:36:00 PM 38.8370 -98.2206 261° West  Level FlightAware Approximate
Sun 09:36:33 PM 38.7061 -97.9928 260° West 286 329 12,200  Level Kansas City Center
Sun 09:37:00 PM 38.8256 -98.3513 264° West  Level FlightAware Approximate
Sun 09:37:35 PM 38.6886 -98.1192 260° West 311 358 13,400  Level Kansas City Center
Sun 09:38:36 PM 38.6722 -98.2358 260° West 333 383 14,500 1,033 Climbing Kansas City Center
Sun 09:39:37 PM 38.6558 -98.3553 260° West 342 394 15,500 976 Climbing Kansas City Center
Sun 09:40:39 PM 38.6392 -98.4767 260° West 347 399 16,500 976 Climbing Kansas City Center
Sun 09:41:40 PM 38.6228 -98.5964 260° West 345 397 17,500 934 Climbing Kansas City Center
Sun 09:42:41 PM 38.6053 -98.7178 260° West 348 400 18,400 976 Climbing Kansas City Center
Sun 09:43:43 PM 38.5878 -98.8375 259° West 344 396 19,500 1,268 Climbing Kansas City Center
Sun 09:44:44 PM 38.5703 -98.9561 259° West 343 395 21,000 1,610 Climbing Kansas City Center
Sun 09:45:46 PM 38.5500 -99.0967 260° West 338 389 22,800 1,659 Climbing Kansas City Center
Sun 09:46:47 PM 38.5325 -99.2183 260° West 346 398 24,400 1,525 Climbing Kansas City Center
Sun 09:47:48 PM 38.5128 -99.3392 258° West 347 399 25,900 1,415 Climbing Kansas City Center
Sun 09:48:50 PM 38.4931 -99.4600 258° West 348 400 27,300 1,122 Climbing Kansas City Center
Sun 09:49:51 PM 38.4725 -99.5853 258° West 352 405 28,200 878 Climbing Kansas City Center
Sun 09:50:53 PM 38.4500 -99.7269 259° West 363 418 29,100 829 Climbing Kansas City Center
Sun 09:51:54 PM 38.4292 -99.8536 258° West 376 433 29,900 738 Climbing Kansas City Center
Sun 09:52:55 PM 38.4083 -99.9811 258° West 382 440 30,600 732 Climbing Kansas City Center
Sun 09:53:57 PM 38.3828 -100.1297 258° West 385 443 31,400 732 Climbing Kansas City Center
Sun 09:54:58 PM 38.3617 -100.2564 258° West 384 442 32,100 780 Climbing Kansas City Center
Sun 09:56:00 PM 38.3375 -100.4036 258° West 381 438 33,000 780 Climbing Kansas City Center
Sun 09:57:01 PM 38.3156 -100.5281 257° West 379 436 33,700 488 Climbing Kansas City Center
Sun 09:58:03 PM 38.2939 -100.6525 258° West 378 435 34,000 146 Climbing Kansas City Center
Sun 09:59:04 PM 38.2681 -100.8028 258° West 388 447 34,000  Level Kansas City Center
Sun 10:00:05 PM 38.2456 -100.9314 257° West 391 450 34,000  Level Kansas City Center
Sun 10:01:07 PM 38.2181 -101.0856 257° West 399 459 34,000  Level Kansas City Center
Sun 10:01:51 PM 38.2031 -101.1692 257° West 396 456 34,000  Level Denver Center
Sun 10:02:53 PM 38.1772 -101.3189 258° West 391 450 34,000  Level Denver Center
Sun 10:03:55 PM 38.1533 -101.4453 257° West 387 445 34,000 194 Level Denver Center
Sun 10:04:57 PM 38.1269 -101.5917 257° West 384 442 34,400 488 Climbing Denver Center
Sun 10:05:58 PM 38.1053 -101.7139 257° West 375 432 35,000 293 Climbing Denver Center
Sun 10:07:00 PM 38.0781 -101.8617 257° West 386 444 35,000  Level Denver Center
Sun 10:08:02 PM 38.0567 -101.9714 256° West 398 458 35,000  Level Denver Center
Sun 10:09:04 PM 38.0253 -102.1444 257° West 398 458 35,000 97 Level Denver Center
Sun 10:10:06 PM 38.0025 -102.2731 257° West 394 453 35,200 387 Climbing Denver Center
Sun 10:11:08 PM 37.9753 -102.4158 256° West 377 434 35,800 537 Climbing Denver Center
Sun 10:12:09 PM 37.9517 -102.5439 257° West 365 420 36,300 488 Climbing Denver Center
Sun 10:13:11 PM 37.9286 -102.6597 256° West 356 410 36,800 532 Climbing Denver Center
Sun 10:14:13 PM 37.9039 -102.7914 257° West 347 399 37,400 532 Climbing Denver Center
Sun 10:15:15 PM 37.8825 -102.9028 256° West 340 391 37,900 290 Climbing Denver Center
Sun 10:16:17 PM 37.8606 -103.0119 256° West 335 386 38,000 49 Climbing Denver Center
Sun 10:17:18 PM 37.8353 -103.1428 256° West 342 394 38,000  Level Denver Center
Sun 10:18:20 PM 37.8122 -103.2575 256° West 351 404 38,000  Level Denver Center
Sun 10:19:22 PM 37.7869 -103.3917 257° West 354 407 38,000  Level Denver Center
Sun 10:20:24 PM 37.7633 -103.5083 256° West 357 411 38,000  Level Denver Center
Sun 10:21:37 PM 37.7364 -103.6439 256° West 358 412 38,000  Level Denver Center
Sun 10:22:39 PM 37.7092 -103.7833 256° West 367 422 38,000  Level Denver Center
Sun 10:23:41 PM 37.6808 -103.9250 256° West 375 432 38,000  Level Denver Center
Sun 10:24:43 PM 37.6569 -104.0472 256° West 380 437 38,000  Level Denver Center
Sun 10:25:44 PM 37.6258 -104.1872 254° West 377 434 38,000  Level Denver Center
Sun 10:26:46 PM 37.6008 -104.3078 255° West 374 430 38,000  Level Denver Center
Sun 10:27:47 PM 37.5711 -104.4497 255° West 376 433 38,000  Level Denver Center
Sun 10:28:49 PM 37.5456 -104.5728 255° West 380 437 38,000  Level Denver Center
Sun 10:29:51 PM 37.5156 -104.7167 255° West 380 437 38,000  Level Denver Center
Sun 10:30:52 PM 37.4897 -104.8389 255° West 378 435 38,000  Level Denver Center
Sun 10:31:54 PM 37.4592 -104.9833 255° West 382 440 38,000  Level Denver Center
Sun 10:32:55 PM 37.4336 -105.1067 255° West 381 438 38,000  Level Denver Center
Sun 10:33:57 PM 37.4058 -105.2400 255° West 386 444 38,000  Level Denver Center
Sun 10:34:58 PM 37.3781 -105.3669 255° West 391 450 38,000  Level Denver Center
Sun 10:36:00 PM 37.3444 -105.5144 254° West 394 453 38,000  Level Denver Center
Sun 10:37:02 PM 37.3172 -105.6414 255° West 393 452 38,000  Level Denver Center
Sun 10:38:03 PM 37.2842 -105.7872 254° West 391 450 38,000  Level Denver Center
Sun 10:39:05 PM 37.2567 -105.9119 255° West 389 448 38,000  Level Denver Center
Sun 10:40:06 PM 37.2247 -106.0567 255° West 386 444 38,000  Level Denver Center
Sun 10:41:07 PM 37.2022 -106.1608 255° West 388 447 38,000  Level Denver Center
Sun 10:42:09 PM 37.1697 -106.3067 254° West 391 450 38,000  Level Denver Center
Sun 10:43:11 PM 37.1350 -106.4533 254° West 393 452 38,000  Level Denver Center
Sun 10:44:12 PM 37.1067 -106.5814 255° West 398 458 38,000  Level Denver Center
Sun 10:45:14 PM 37.0714 -106.7311 254° West 402 463 38,000  Level Denver Center
Sun 10:46:15 PM 37.0192 -106.8469 241° Southwest 404 465 38,000  Level Denver Center
Sun 10:47:16 PM 36.9419 -106.9411 224° Southwest 403 464 38,000  Level Denver Center
Sun 10:48:18 PM 36.8481 -107.0469 222° Southwest 406 467 38,000  Level Denver Center
Sun 10:49:19 PM 36.7706 -107.1386 223° Southwest 403 464 38,000  Level Denver Center
Sun 10:50:21 PM 36.6803 -107.2414 222° Southwest 394 453 38,000  Level Denver Center
Sun 10:51:22 PM 36.6061 -107.3278 223° Southwest 384 442 38,000  Level Denver Center
Sun 10:52:36 PM 36.5314 -107.4136 223° Southwest 381 438 38,000  Level Denver Center
Sun 10:53:37 PM 36.4342 -107.5242 222° Southwest 372 428 38,000  Level Denver Center
Sun 10:54:47 PM 36.3486 -107.6244 223° Southwest 375 432 38,000  Level Albuquerque Center
Sun 10:55:40 PM 36.2747 -107.7064 222° Southwest 374 430 38,000  Level Denver Center
Sun 10:56:42 PM 36.2008 -107.7908 223° Southwest 376 433 38,000  Level Denver Center
Sun 10:57:43 PM 36.1142 -107.8878 222° Southwest 376 433 38,000  Level Denver Center
Sun 10:58:45 PM 36.0403 -107.9722 223° Southwest 376 433 38,000  Level Denver Center
Sun 10:59:46 PM 35.9653 -108.0547 222° Southwest 376 433 38,000  Level Denver Center
Sun 11:00:54 PM 35.8792 -108.1536 223° Southwest 375 432 38,000  Level Albuquerque Center
Sun 11:01:55 PM 35.7942 -108.2514 223° Southwest 374 430 38,000 -49 Level Albuquerque Center
Sun 11:02:56 PM 35.7208 -108.3358 223° Southwest 374 430 37,900 -738 Descending Albuquerque Center
Sun 11:03:57 PM 35.6447 -108.4225 223° Southwest 380 437 36,500 -1,574 Descending Albuquerque Center
Sun 11:04:58 PM 35.5539 -108.5283 223° Southwest 395 455 34,700 -1,230 Descending Albuquerque Center
Sun 11:05:59 PM 35.4744 -108.6189 223° Southwest 403 464 34,000 -344 Descending Albuquerque Center
Sun 11:07:00 PM 35.3833 -108.7244 223° Southwest 402 463 34,000  Level Albuquerque Center
Sun 11:08:01 PM 35.3039 -108.8133 222° Southwest 402 463 34,000  Level Albuquerque Center
Sun 11:09:03 PM 35.2242 -108.9039 223° Southwest 405 466 34,000  Level Albuquerque Center
Sun 11:10:04 PM 35.1289 -109.0097 222° Southwest 411 473 34,000  Level Albuquerque Center
Sun 11:11:05 PM 35.0483 -109.1025 223° Southwest 412 474 34,000  Level Albuquerque Center
Sun 11:12:06 PM 34.9694 -109.1911 223° Southwest 406 467 34,000 -49 Level Albuquerque Center
Sun 11:13:07 PM 34.8775 -109.2933 222° Southwest 402 463 33,900 -984 Descending Albuquerque Center
Sun 11:14:08 PM 34.7969 -109.3828 222° Southwest 406 467 32,000 -1,869 Descending Albuquerque Center
Sun 11:15:09 PM 34.7200 -109.4706 223° Southwest 399 459 30,100 -984 Descending Albuquerque Center
Sun 11:16:10 PM 34.6581 -109.5928 238° Southwest 383 441 30,000 -49 Descending Albuquerque Center
Sun 11:17:11 PM 34.6042 -109.7008 239° Southwest 386 444 30,000  Level Albuquerque Center
Sun 11:18:13 PM 34.5478 -109.8108 238° Southwest 395 455 30,000  Level Albuquerque Center
Sun 11:19:14 PM 34.4806 -109.9461 239° Southwest 411 473 30,000 -246 Level Albuquerque Center
Sun 11:20:15 PM 34.4217 -110.0619 238° Southwest 418 481 29,500 -1,426 Descending Albuquerque Center
Sun 11:21:16 PM 34.3567 -110.1969 240° Southwest 417 480 27,100 -2,115 Descending Albuquerque Center
Sun 11:22:17 PM 34.3050 -110.3111 241° Southwest 408 470 25,200 -1,869 Descending Albuquerque Center
Sun 11:23:18 PM 34.2525 -110.4261 241° Southwest 388 447 23,300 -1,756 Descending Albuquerque Center
Sun 11:24:20 PM 34.2064 -110.5275 241° Southwest 356 410 21,600 -1,610 Descending Albuquerque Center
Sun 11:25:21 PM 34.1575 -110.6206 238° Southwest 337 388 20,000 -1,525 Descending Albuquerque Center
Sun 11:26:22 PM 34.0786 -110.6808 212° Southwest 335 386 18,500 -1,525 Descending Albuquerque Center
Sun 11:27:23 PM 33.9914 -110.7389 209° Southwest 329 379 16,900 -1,525 Descending Albuquerque Center
Sun 11:28:24 PM 33.9139 -110.7922 210° Southwest 323 372 15,400 -1,426 Descending Albuquerque Center
Sun 11:29:25 PM 33.8383 -110.8464 211° Southwest 319 367 14,000 -1,082 Descending Albuquerque Center
Sun 11:30:26 PM 33.7889 -110.9225 232° Southwest 294 338 13,200 -738 Descending Albuquerque Center
Sun 11:31:27 PM 33.7392 -110.9989 232° Southwest 291 335 12,500 -732 Descending Albuquerque Center
Sun 11:32:29 PM 33.6886 -111.0761 232° Southwest 294 338 11,700 -732 Descending Albuquerque Center
Sun 11:33:30 PM 33.6378 -111.1531 232° Southwest 294 338 11,000 -836 Descending Albuquerque Center
Sun 11:34:31 PM 33.5900 -111.2322 234° Southwest 291 335 10,000 -984 Descending Albuquerque Center
Sun 11:35:32 PM 33.5425 -111.3103 234° Southwest 289 333 9,000 -1,033 Descending Albuquerque Center
Sun 11:36:33 PM 33.4939 -111.3842 232° Southwest 283 326 7,900 -787 Descending Albuquerque Center
Sun 11:37:34 PM 33.4317 -111.4331 213° Southwest 267 307 7,400 -443 Descending Albuquerque Center
Sun 11:38:35 PM 33.3756 -111.4744 212° Southwest 243 280 7,000 -938 Descending Albuquerque Center
Sun 11:39:10 PM 33.3167 -111.4833 187° South 260 299 5,900 -1,579 Descending Phoenix TRACON
Sun 11:40:10 PM 33.2500 -111.4667 168° South 245 282 4,500 -1,100 Descending Phoenix TRACON
Sun 11:41:10 PM 33.2167 -111.5167 231° Southwest 161 185 3,700 -650 Descending Phoenix TRACON
Sun 11:42:10 PM 33.2333 -111.5500 301° West 129 148 3,200 -450 Descending Phoenix TRACON
Sun 11:43:10 PM 33.2500 -111.5833 301° West 116 133 2,800 -500 Descending Phoenix TRACON
Sun 11:44:10 PM 33.2667 -111.6167 301° West 115 132 2,200 -600 Descending Phoenix TRACON
Sun 11:45:10 PM 33.2833 -111.6333 320° Northwest 111 128 1,600 -581 Descending Phoenix TRACON
Sun 11:45:43 PM 33.2992 -111.6503 318° Northwest 112 129 1,300 -545 Descending Albuquerque Center

Login

Don't have an account? Register now (free) for customized features, flight alerts, and more!